RYR2RB EPPO-EGGP
Flight info
| Callsign | RYR2RB |
|---|---|
| Flight time | N/A |
| Altitude | 40000 |
| Route | ELSUP1B ELSUP Z181 XIGRI DCT GARLU DCT RAVLO Y70 POL POL1L |
| Aircraft | B738/H-V/N |
Departure
| Time | 2026-04-27 17:37 |
|---|---|
| Airport | Poznań-Ławica Airport (EPPO) |
Arrival
| Time | N/A |
|---|---|
| Airport | Liverpool John Lennon Airport (EGGP) |
| Time | Latitude | Longitude | Altitude | Speed | Heading |
|---|---|---|---|---|---|
| 2026-04-27 17:34 | 52.41660 | 16.82883 | 287 ft | 0 kts | 104° |
| 2026-04-27 17:34 | 52.41659 | 16.82891 | 287 ft | 3 kts | 103° |
| 2026-04-27 17:34 | 52.41646 | 16.82975 | 287 ft | 12 kts | 103° |
| 2026-04-27 17:35 | 52.41622 | 16.83157 | 287 ft | 21 kts | 102° |
| 2026-04-27 17:35 | 52.41586 | 16.83425 | 287 ft | 27 kts | 102° |
| 2026-04-27 17:35 | 52.41566 | 16.83704 | 287 ft | 23 kts | 91° |
| 2026-04-27 17:35 | 52.41602 | 16.83949 | 287 ft | 16 kts | 45° |
| 2026-04-27 17:36 | 52.41715 | 16.84031 | 287 ft | 20 kts | 19° |
| 2026-04-27 17:36 | 52.41827 | 16.84056 | 289 ft | 14 kts | 317° |
| 2026-04-27 17:36 | 52.41864 | 16.83886 | 292 ft | 20 kts | 281° |
| 2026-04-27 17:36 | 52.41991 | 16.83222 | 287 ft | 104 kts | 289° |
| 2026-04-27 17:37 | 52.42289 | 16.81714 | 387 ft | 164 kts | 290° |
| 2026-04-27 17:37 | 52.42623 | 16.79863 | 1220 ft | 171 kts | 289° |
| 2026-04-27 17:37 | 52.42977 | 16.77859 | 1789 ft | 197 kts | 288° |
| 2026-04-27 17:37 | 52.43395 | 16.75711 | 2480 ft | 197 kts | 290° |
| 2026-04-27 17:38 | 52.43852 | 16.73460 | 2697 ft | 219 kts | 290° |
| 2026-04-27 17:38 | 52.44349 | 16.70981 | 2868 ft | 240 kts | 289° |
| 2026-04-27 17:38 | 52.44873 | 16.68314 | 3660 ft | 249 kts | 289° |
| 2026-04-27 17:38 | 52.45396 | 16.65615 | 4648 ft | 253 kts | 289° |
| 2026-04-27 17:39 | 52.45930 | 16.62830 | 5661 ft | 256 kts | 288° |
| 2026-04-27 17:39 | 52.46462 | 16.60035 | 6695 ft | 258 kts | 288° |
| 2026-04-27 17:39 | 52.46998 | 16.57204 | 7653 ft | 260 kts | 288° |
| 2026-04-27 17:39 | 52.47533 | 16.54372 | 8595 ft | 263 kts | 289° |
| 2026-04-27 17:40 | 52.48076 | 16.51492 | 9533 ft | 266 kts | 289° |
| 2026-04-27 17:40 | 52.48572 | 16.48545 | 10444 ft | 271 kts | 283° |
| 2026-04-27 17:40 | 52.48822 | 16.45394 | 10831 ft | 295 kts | 278° |
| 2026-04-27 17:40 | 52.48993 | 16.41883 | 11040 ft | 321 kts | 277° |
| 2026-04-27 17:41 | 52.49161 | 16.38089 | 11369 ft | 341 kts | 277° |
| 2026-04-27 17:41 | 52.49343 | 16.34152 | 12066 ft | 348 kts | 277° |
| 2026-04-27 17:41 | 52.49538 | 16.30176 | 12893 ft | 351 kts | 277° |
| 2026-04-27 17:41 | 52.49743 | 16.26207 | 13722 ft | 354 kts | 277° |
| 2026-04-27 17:42 | 52.49958 | 16.22143 | 14455 ft | 358 kts | 277° |
| 2026-04-27 17:42 | 52.50176 | 16.18045 | 15192 ft | 361 kts | 277° |
| 2026-04-27 17:42 | 52.50394 | 16.13929 | 15949 ft | 363 kts | 277° |
| 2026-04-27 17:42 | 52.50613 | 16.09770 | 16635 ft | 367 kts | 277° |
| 2026-04-27 17:43 | 52.50830 | 16.05626 | 17342 ft | 370 kts | 277° |
| 2026-04-27 17:43 | 52.51049 | 16.01396 | 18081 ft | 372 kts | 277° |
| 2026-04-27 17:43 | 52.51267 | 15.97139 | 18759 ft | 375 kts | 277° |
| 2026-04-27 17:43 | 52.51485 | 15.92856 | 19352 ft | 378 kts | 277° |
| 2026-04-27 17:44 | 52.51704 | 15.88521 | 19933 ft | 381 kts | 276° |
| 2026-04-27 17:44 | 52.51923 | 15.84170 | 20511 ft | 384 kts | 276° |
| 2026-04-27 17:44 | 52.52140 | 15.79810 | 21080 ft | 387 kts | 276° |
| 2026-04-27 17:44 | 52.52359 | 15.75377 | 21643 ft | 390 kts | 276° |
| 2026-04-27 17:45 | 52.52577 | 15.70946 | 22189 ft | 394 kts | 276° |
| 2026-04-27 17:45 | 52.52796 | 15.66461 | 22730 ft | 397 kts | 276° |
| 2026-04-27 17:45 | 52.53015 | 15.61925 | 23268 ft | 399 kts | 276° |
| 2026-04-27 17:45 | 52.53235 | 15.57342 | 23780 ft | 402 kts | 276° |
| 2026-04-27 17:46 | 52.53455 | 15.52727 | 24226 ft | 404 kts | 276° |
| 2026-04-27 17:46 | 52.53671 | 15.48166 | 24697 ft | 405 kts | 276° |
| 2026-04-27 17:46 | 52.53888 | 15.43527 | 25173 ft | 406 kts | 276° |
| 2026-04-27 17:46 | 52.54040 | 15.38868 | 25609 ft | 409 kts | 272° |
| 2026-04-27 17:47 | 52.53938 | 15.34163 | 26042 ft | 412 kts | 269° |
| 2026-04-27 17:47 | 52.53802 | 15.31044 | 26322 ft | 413 kts | 268° |
| 2026-04-27 17:47 | 52.53496 | 15.24784 | 26869 ft | 415 kts | 268° |
| 2026-04-27 17:47 | 52.53281 | 15.20044 | 27270 ft | 416 kts | 268° |
| 2026-04-27 17:48 | 52.53088 | 15.15280 | 27666 ft | 418 kts | 269° |
| 2026-04-27 17:48 | 52.52909 | 15.10487 | 28041 ft | 419 kts | 269° |
| 2026-04-27 17:48 | 52.52736 | 15.05739 | 28373 ft | 422 kts | 269° |
| 2026-04-27 17:48 | 52.52558 | 15.00924 | 28723 ft | 423 kts | 269° |
| 2026-04-27 17:49 | 52.52378 | 14.96079 | 29084 ft | 425 kts | 269° |
| 2026-04-27 17:49 | 52.52204 | 14.91224 | 29475 ft | 425 kts | 269° |
| 2026-04-27 17:49 | 52.52030 | 14.86389 | 30010 ft | 422 kts | 269° |
| 2026-04-27 17:49 | 52.51856 | 14.81588 | 30570 ft | 418 kts | 269° |
| 2026-04-27 17:50 | 52.51684 | 14.76898 | 30985 ft | 416 kts | 269° |
| 2026-04-27 17:50 | 52.51330 | 14.67400 | 31667 ft | 416 kts | 269° |
| 2026-04-27 17:50 | 52.51191 | 14.62658 | 32056 ft | 414 kts | 272° |
| 2026-04-27 17:51 | 52.51385 | 14.58007 | 32450 ft | 410 kts | 280° |
| 2026-04-27 17:51 | 52.51886 | 14.53388 | 32837 ft | 408 kts | 281° |
| 2026-04-27 17:51 | 52.52391 | 14.48794 | 33193 ft | 408 kts | 281° |
| 2026-04-27 17:51 | 52.52885 | 14.44254 | 33550 ft | 407 kts | 281° |
| 2026-04-27 17:52 | 52.53376 | 14.39669 | 33927 ft | 405 kts | 281° |
| 2026-04-27 17:52 | 52.53859 | 14.35100 | 34280 ft | 404 kts | 281° |
| 2026-04-27 17:52 | 52.54336 | 14.30541 | 34545 ft | 405 kts | 281° |
| 2026-04-27 17:52 | 52.54651 | 14.27518 | 34686 ft | 405 kts | 281° |
| 2026-04-27 17:53 | 52.55279 | 14.21436 | 34995 ft | 406 kts | 281° |
| 2026-04-27 17:53 | 52.55750 | 14.16849 | 35256 ft | 406 kts | 281° |
| 2026-04-27 17:53 | 52.56062 | 14.13801 | 35411 ft | 406 kts | 281° |
| 2026-04-27 17:53 | 52.56530 | 14.09205 | 35629 ft | 408 kts | 280° |
| 2026-04-27 17:54 | 52.56998 | 14.04596 | 35808 ft | 409 kts | 280° |
| 2026-04-27 17:54 | 52.57532 | 13.98447 | 36146 ft | 409 kts | 278° |
| 2026-04-27 17:54 | 52.57768 | 13.95354 | 36320 ft | 409 kts | 278° |
| 2026-04-27 17:54 | 52.58109 | 13.90713 | 36543 ft | 409 kts | 278° |
| 2026-04-27 17:55 | 52.58447 | 13.86055 | 36745 ft | 410 kts | 278° |
| 2026-04-27 17:55 | 52.58789 | 13.81379 | 36972 ft | 410 kts | 278° |
| 2026-04-27 17:55 | 52.59134 | 13.76712 | 37201 ft | 410 kts | 278° |
| 2026-04-27 17:55 | 52.59476 | 13.72099 | 37408 ft | 411 kts | 278° |
| 2026-04-27 17:56 | 52.59826 | 13.67412 | 37613 ft | 411 kts | 278° |
| 2026-04-27 17:56 | 52.60175 | 13.62737 | 37838 ft | 411 kts | 278° |
| 2026-04-27 17:56 | 52.60522 | 13.58065 | 38018 ft | 412 kts | 278° |
| 2026-04-27 17:56 | 52.60866 | 13.53435 | 38194 ft | 413 kts | 278° |
| 2026-04-27 17:57 | 52.61212 | 13.48741 | 38415 ft | 413 kts | 278° |
| 2026-04-27 17:57 | 52.61556 | 13.44048 | 38644 ft | 412 kts | 278° |
| 2026-04-27 17:57 | 52.61899 | 13.39338 | 38826 ft | 413 kts | 278° |
| 2026-04-27 17:57 | 52.62236 | 13.34693 | 38973 ft | 413 kts | 278° |
| 2026-04-27 17:58 | 52.62576 | 13.29973 | 39112 ft | 414 kts | 278° |
| 2026-04-27 17:58 | 52.62914 | 13.25257 | 39241 ft | 414 kts | 278° |
| 2026-04-27 17:58 | 52.63251 | 13.20538 | 39344 ft | 415 kts | 278° |
| 2026-04-27 17:58 | 52.63587 | 13.15788 | 39455 ft | 416 kts | 278° |
| 2026-04-27 17:59 | 52.63917 | 13.11116 | 39592 ft | 416 kts | 278° |
| 2026-04-27 17:59 | 52.64249 | 13.06365 | 39688 ft | 418 kts | 278° |
| 2026-04-27 17:59 | 52.64581 | 13.01601 | 39795 ft | 418 kts | 278° |
| 2026-04-27 17:59 | 52.64911 | 12.96830 | 39936 ft | 418 kts | 278° |
| 2026-04-27 18:00 | 52.65240 | 12.92050 | 40058 ft | 418 kts | 277° |
| 2026-04-27 18:00 | 52.65563 | 12.87326 | 40169 ft | 419 kts | 277° |
| 2026-04-27 18:00 | 52.66213 | 12.77733 | 40227 ft | 422 kts | 277° |
| 2026-04-27 18:01 | 52.66857 | 12.68125 | 40234 ft | 421 kts | 277° |
| 2026-04-27 18:01 | 52.67488 | 12.58570 | 40233 ft | 421 kts | 277° |
| 2026-04-27 18:02 | 52.68115 | 12.48969 | 40235 ft | 421 kts | 277° |
| 2026-04-27 18:02 | 52.68732 | 12.39400 | 40233 ft | 420 kts | 277° |
| 2026-04-27 18:03 | 52.69344 | 12.29783 | 40236 ft | 420 kts | 277° |
| 2026-04-27 18:03 | 52.69944 | 12.20237 | 40236 ft | 420 kts | 277° |
| 2026-04-27 18:04 | 52.70539 | 12.10636 | 40231 ft | 420 kts | 277° |
| 2026-04-27 18:04 | 52.71124 | 12.01085 | 40236 ft | 420 kts | 277° |
| 2026-04-27 18:05 | 52.71703 | 11.91478 | 40236 ft | 420 kts | 277° |
| 2026-04-27 18:05 | 52.72276 | 11.81866 | 40238 ft | 420 kts | 276° |
| 2026-04-27 18:06 | 52.72837 | 11.72298 | 40241 ft | 421 kts | 276° |
| 2026-04-27 18:06 | 52.73393 | 11.62707 | 40240 ft | 421 kts | 276° |
| 2026-04-27 18:07 | 52.73943 | 11.53068 | 40238 ft | 422 kts | 276° |
| 2026-04-27 18:07 | 52.74488 | 11.43379 | 40247 ft | 422 kts | 276° |
| 2026-04-27 18:08 | 52.75022 | 11.33736 | 40244 ft | 423 kts | 276° |
| 2026-04-27 18:08 | 52.75548 | 11.24097 | 40249 ft | 424 kts | 276° |